Weather at Jeju International Airport

Public forecast

Using degrees Celsius for public forecast. Weather courtesy of forecast.io.

Current aviation weather report (METAR) for Jeju International Airport

Retrieved 2021/01/26 01:00 UTC (59 minutes ago):

RKPC 260100Z 06010KT 4500 RA BR SCT005 BKN025 OVC080 10/09 Q1018 NOSIG

Aviation forecast (TAF) for Jeju International Airport

Retrieved 2021-01-26 00:06 UTC (2 hours ago):

TAF RKPC 252300Z 2600/2706 07010KT 4000 RA SCT012 BKN025 OVC080 TX11/2601Z TN05/2622Z TX09/2705Z BECMG 2601/2602 01015G25KT 6000 -RA BECMG 2606/2607 36010KT 9999 NSW BKN030 BECMG 2616/2617 CAVOK